createdAt,value
2022-08-26T00:01:57.887Z,8.63
2022-08-26T00:04:32.119Z,8.75
2022-08-26T00:07:05.333Z,8.98
2022-08-26T00:09:40.129Z,9.43
2022-08-26T00:12:12.780Z,8.25
2022-08-26T00:14:45.144Z,8.48
2022-08-26T00:17:17.156Z,8.60
2022-08-26T00:19:49.189Z,9.00
2022-08-26T00:22:25.363Z,9.75
2022-08-26T00:24:58.328Z,8.23
2022-08-26T00:27:34.004Z,8.68
2022-08-26T00:30:14.358Z,9.00
2022-08-26T00:32:47.246Z,9.38
2022-08-26T00:35:21.533Z,8.90
2022-08-26T00:37:56.737Z,9.65
2022-08-26T00:40:35.595Z,9.48
2022-08-26T00:43:09.429Z,9.52
2022-08-26T00:45:49.729Z,9.20
2022-08-26T00:48:25.347Z,9.25
2022-08-26T00:51:07.557Z,8.90
2022-08-26T00:53:57.884Z,9.68
2022-08-26T00:56:38.871Z,9.65
2022-08-26T00:59:13.971Z,9.23
2022-08-26T01:01:49.495Z,9.52
2022-08-26T01:04:23.973Z,9.57
2022-08-26T01:06:58.211Z,9.88
2022-08-26T01:09:31.166Z,9.55
2022-08-26T01:12:04.302Z,8.90
2022-08-26T01:14:37.466Z,9.55
2022-08-26T01:17:10.006Z,9.35
2022-08-26T01:20:00.277Z,9.32
2022-08-26T01:22:56.219Z,9.43
2022-08-26T01:25:32.846Z,11.25
2022-08-26T01:28:09.465Z,9.60
2022-08-26T01:30:44.289Z,9.30
2022-08-26T01:33:19.878Z,9.95
2022-08-26T01:35:52.450Z,10.15
2022-08-26T01:38:24.714Z,10.38
2022-08-26T01:40:57.369Z,9.52
2022-08-26T01:43:33.266Z,9.55
2022-08-26T01:46:06.839Z,9.73
2022-08-26T01:48:44.945Z,9.70
2022-08-26T01:51:20.830Z,8.75
2022-08-26T01:53:53.265Z,9.05
2022-08-26T01:56:25.552Z,9.93
2022-08-26T02:01:41.551Z,10.05
2022-08-26T02:04:33.544Z,10.38
2022-08-26T02:07:10.015Z,10.35
2022-08-26T02:09:42.945Z,9.98
2022-08-26T02:12:17.722Z,9.93
2022-08-26T02:14:57.447Z,9.65
2022-08-26T02:17:35.562Z,10.18
2022-08-26T02:20:13.237Z,10.77
2022-08-26T02:22:47.894Z,9.80
2022-08-26T02:25:39.622Z,11.05
2022-08-26T02:28:13.237Z,9.85
2022-08-26T02:30:47.277Z,10.75
2022-08-26T02:33:19.721Z,10.38
2022-08-26T02:35:52.059Z,10.23
2022-08-26T02:38:24.125Z,10.55
2022-08-26T02:40:56.434Z,10.93
2022-08-26T02:43:31.697Z,9.95
2022-08-26T02:46:06.058Z,9.80
2022-08-26T02:48:38.437Z,10.90
2022-08-26T02:51:11.641Z,10.30
2022-08-26T02:53:45.323Z,10.80
2022-08-26T02:56:17.383Z,11.18
2022-08-26T02:58:50.358Z,11.30
2022-08-26T03:01:27.712Z,11.07
2022-08-26T03:04:03.170Z,10.68
2022-08-26T03:06:35.749Z,10.35
2022-08-26T03:09:09.631Z,11.50
2022-08-26T03:11:41.745Z,11.00
2022-08-26T03:14:13.824Z,10.45
2022-08-26T03:16:48.431Z,10.70
2022-08-26T03:19:23.386Z,10.45
2022-08-26T03:21:57.857Z,11.57
2022-08-26T03:24:30.608Z,10.45
2022-08-26T03:27:06.014Z,10.65
2022-08-26T03:29:58.572Z,10.93
2022-08-26T03:32:30.748Z,10.65
2022-08-26T03:35:02.802Z,12.18
2022-08-26T03:37:34.792Z,11.32
2022-08-26T03:40:10.554Z,10.82
2022-08-26T03:42:45.439Z,10.88
2022-08-26T03:45:20.174Z,10.88
2022-08-26T03:47:52.594Z,11.07
2022-08-26T03:50:25.646Z,11.57
2022-08-26T03:52:59.058Z,12.25
2022-08-26T03:55:33.292Z,10.88
2022-08-26T03:58:05.349Z,11.93
2022-08-26T04:00:37.516Z,11.43
2022-08-26T04:03:14.740Z,11.25
2022-08-26T04:05:52.449Z,11.00
2022-08-26T04:08:24.856Z,12.32
2022-08-26T04:11:01.328Z,12.15
2022-08-26T04:13:33.754Z,12.35
2022-08-26T04:16:06.146Z,11.73
2022-08-26T04:18:38.337Z,12.65
2022-08-26T04:21:18.773Z,11.20
2022-08-26T04:23:51.377Z,11.65
2022-08-26T04:26:24.455Z,12.60
2022-08-26T04:28:56.452Z,12.05
2022-08-26T04:31:28.577Z,13.10
2022-08-26T04:34:05.052Z,11.93
2022-08-26T04:36:37.895Z,13.80
2022-08-26T04:39:12.396Z,13.23
2022-08-26T04:41:45.077Z,13.13
2022-08-26T04:44:17.973Z,13.10
2022-08-26T04:46:50.003Z,14.82
2022-08-26T04:49:22.265Z,13.35
2022-08-26T04:51:55.029Z,12.60
2022-08-26T04:54:27.875Z,13.15
2022-08-26T04:57:00.490Z,13.18
2022-08-26T04:59:35.969Z,12.50
2022-08-26T05:02:11.974Z,13.07
2022-08-26T05:04:44.028Z,14.10
2022-08-26T05:07:17.708Z,11.82
2022-08-26T05:09:49.750Z,14.73
2022-08-26T05:12:21.978Z,14.85
2022-08-26T05:14:54.149Z,14.70
2022-08-26T05:17:29.884Z,12.63
2022-08-26T05:20:02.034Z,13.45
2022-08-26T05:22:34.065Z,14.00
2022-08-26T05:25:06.967Z,13.48
2022-08-26T05:27:38.998Z,13.35
2022-08-26T05:30:11.712Z,15.13
2022-08-26T05:32:43.929Z,14.13
2022-08-26T05:35:17.460Z,11.85
2022-08-26T05:37:50.012Z,13.20
2022-08-26T05:40:22.516Z,14.73
2022-08-26T05:42:55.694Z,13.57
2022-08-26T05:45:28.102Z,14.93
2022-08-26T05:48:00.099Z,13.80
2022-08-26T05:50:32.157Z,13.82
2022-08-26T05:53:04.611Z,14.10
2022-08-26T05:55:45.533Z,14.27
2022-08-26T05:58:22.624Z,12.23
2022-08-26T06:01:05.237Z,12.85
2022-08-26T06:03:40.380Z,13.57
2022-08-26T06:06:27.589Z,13.93
2022-08-26T06:09:04.614Z,14.80
2022-08-26T06:11:36.951Z,12.20
2022-08-26T06:14:09.554Z,13.55
2022-08-26T06:16:45.404Z,14.43
2022-08-26T06:19:17.626Z,12.65
2022-08-26T06:21:54.666Z,14.27
2022-08-26T06:24:45.899Z,13.52
2022-08-26T06:27:18.314Z,14.15
2022-08-26T06:29:51.669Z,13.50
2022-08-26T06:32:24.470Z,14.40
2022-08-26T06:34:56.801Z,14.10
2022-08-26T06:37:29.599Z,14.18
2022-08-26T06:40:01.737Z,14.45
2022-08-26T06:42:36.107Z,12.60
2022-08-26T06:45:08.702Z,13.38
2022-08-26T06:47:40.685Z,13.73
2022-08-26T06:50:12.910Z,14.32
2022-08-26T06:52:45.151Z,12.70
2022-08-26T06:55:17.219Z,12.63
2022-08-26T06:57:50.559Z,13.80
2022-08-26T07:00:22.712Z,14.38
2022-08-26T07:02:54.844Z,12.48
2022-08-26T07:05:27.058Z,14.38
2022-08-26T07:07:59.421Z,13.63
2022-08-26T07:10:32.023Z,13.02
2022-08-26T07:13:04.500Z,12.50
2022-08-26T07:15:42.771Z,15.25
2022-08-26T07:18:15.196Z,12.05
2022-08-26T07:20:47.212Z,12.95
2022-08-26T07:23:19.469Z,13.35
2022-08-26T07:25:51.470Z,12.95
2022-08-26T07:28:24.872Z,11.50
2022-08-26T07:30:58.551Z,12.25
2022-08-26T07:33:31.506Z,11.30
2022-08-26T07:36:04.207Z,11.88
2022-08-26T07:38:38.790Z,11.98
2022-08-26T07:41:13.358Z,11.95
2022-08-26T07:43:45.993Z,12.77
2022-08-26T07:46:29.961Z,12.07
2022-08-26T07:49:02.392Z,11.30
2022-08-26T07:51:35.764Z,11.68
2022-08-26T07:54:08.866Z,10.50
2022-08-26T07:56:41.143Z,10.07
2022-08-26T07:59:18.495Z,10.77
2022-08-26T08:01:51.431Z,10.68
2022-08-26T08:04:26.607Z,10.20
2022-08-26T08:06:58.959Z,9.95
2022-08-26T08:09:31.067Z,8.77
2022-08-26T08:12:04.626Z,9.32
2022-08-26T08:14:37.287Z,8.98
2022-08-26T08:17:09.677Z,8.95
2022-08-26T08:19:42.291Z,8.63
2022-08-26T08:22:17.600Z,9.30
2022-08-26T08:24:53.028Z,8.52
2022-08-26T08:27:25.978Z,8.27
2022-08-26T08:29:58.131Z,7.55
2022-08-26T08:32:30.314Z,8.43
2022-08-26T08:35:02.923Z,8.05
2022-08-26T08:37:44.093Z,7.55
2022-08-26T08:40:18.491Z,7.13
2022-08-26T08:43:39.487Z,7.47
2022-08-26T08:46:15.454Z,7.78
2022-08-26T08:48:54.677Z,7.00
2022-08-26T08:51:48.312Z,7.05
2022-08-26T08:54:21.994Z,7.00
2022-08-26T08:57:13.176Z,7.03
2022-08-26T09:00:03.771Z,6.68
2022-08-26T09:02:48.057Z,6.72
2022-08-26T09:05:30.024Z,6.25
2022-08-26T09:08:11.135Z,6.32
2022-08-26T09:11:00.620Z,7.32
2022-08-26T09:13:32.674Z,6.90
2022-08-26T09:16:14.368Z,5.82
2022-08-26T09:19:19.002Z,5.97
2022-08-26T09:22:00.352Z,6.95
2022-08-26T09:24:41.282Z,6.93
2022-08-26T09:27:44.444Z,6.50
2022-08-26T09:30:33.067Z,6.40
2022-08-26T09:33:10.150Z,6.10
2022-08-26T09:35:47.446Z,6.38
2022-08-26T09:38:30.585Z,6.60
2022-08-26T09:41:08.394Z,5.75
2022-08-26T09:43:40.875Z,5.40
2022-08-26T09:46:20.532Z,7.53
2022-08-26T09:48:53.324Z,5.72
2022-08-26T09:51:32.019Z,4.70
2022-08-26T09:54:05.706Z,5.53
2022-08-26T09:56:40.314Z,6.18
2022-08-26T09:59:12.572Z,6.20
2022-08-26T10:01:45.210Z,6.97
2022-08-26T10:04:23.257Z,6.40
2022-08-26T10:07:03.274Z,6.45
2022-08-26T10:09:43.154Z,6.28
2022-08-26T10:12:21.953Z,5.28
2022-08-26T10:15:00.557Z,6.03
2022-08-26T10:17:39.425Z,6.63
2022-08-26T10:20:23.847Z,6.73
2022-08-26T10:23:17.370Z,6.95
2022-08-26T10:26:05.849Z,6.40
2022-08-26T10:31:40.223Z,5.35
2022-08-26T10:34:14.195Z,6.53
2022-08-26T10:37:14.932Z,5.60
2022-08-26T10:40:11.973Z,5.63
2022-08-26T10:43:11.322Z,5.72
2022-08-26T10:45:51.508Z,5.80
2022-08-26T10:48:49.103Z,5.50
2022-08-26T10:51:35.629Z,5.45
2022-08-26T10:54:13.956Z,5.65
2022-08-26T10:57:03.844Z,5.00
2022-08-26T10:59:56.760Z,4.38
2022-08-26T11:02:41.042Z,4.97
2022-08-26T11:05:25.349Z,5.13
2022-08-26T11:08:19.517Z,4.37
2022-08-26T11:10:58.023Z,4.97
2022-08-26T11:14:01.285Z,4.88
2022-08-26T11:16:35.070Z,5.05
2022-08-26T11:19:10.849Z,4.95
2022-08-26T11:22:02.849Z,6.15
2022-08-26T11:24:53.392Z,5.00
2022-08-26T11:27:37.499Z,5.32
2022-08-26T11:30:13.190Z,5.03
2022-08-26T11:32:58.200Z,5.00
2022-08-26T11:35:47.703Z,5.72
2022-08-26T11:38:29.156Z,6.22
2022-08-26T11:41:16.625Z,5.53
2022-08-26T11:43:52.267Z,5.68
2022-08-26T11:46:31.393Z,6.20
2022-08-26T11:49:07.413Z,5.40
2022-08-26T11:51:40.927Z,5.75
2022-08-26T11:54:35.203Z,5.25
2022-08-26T11:57:12.679Z,4.93
2022-08-26T11:59:44.843Z,4.78
2022-08-26T12:02:18.189Z,4.90
2022-08-26T12:04:53.861Z,4.60
2022-08-26T12:07:29.059Z,4.65
2022-08-26T12:10:04.543Z,5.38
2022-08-26T12:12:39.510Z,6.30
2022-08-26T12:15:20.082Z,4.93
2022-08-26T12:17:54.592Z,5.72
2022-08-26T12:20:49.009Z,6.03
2022-08-26T12:23:47.919Z,6.00
2022-08-26T12:26:35.871Z,5.88
2022-08-26T12:29:27.146Z,6.13
2022-08-26T12:32:14.899Z,6.45
2022-08-26T12:34:49.216Z,6.93
2022-08-26T12:37:21.534Z,8.48
2022-08-26T12:39:54.279Z,8.43
2022-08-26T12:42:42.539Z,8.95
2022-08-26T12:45:56.307Z,9.07
2022-08-26T12:48:36.128Z,9.57
2022-08-26T12:56:41.235Z,9.30
2022-08-26T12:59:25.815Z,9.70
2022-08-26T13:01:58.054Z,9.10
2022-08-26T13:04:44.193Z,9.68
2022-08-26T13:07:21.676Z,8.63
2022-08-26T13:09:57.708Z,8.98
2022-08-26T13:12:37.605Z,8.82
2022-08-26T13:15:09.916Z,8.98
2022-08-26T13:17:42.009Z,7.70
2022-08-26T13:20:14.108Z,8.32
2022-08-26T13:22:46.171Z,7.13
2022-08-26T13:25:30.480Z,7.15
2022-08-26T13:28:02.733Z,7.70
2022-08-26T13:30:35.200Z,7.97
2022-08-26T13:33:08.865Z,6.68
2022-08-26T13:35:44.750Z,7.88
2022-08-26T13:38:33.339Z,9.15
2022-08-26T13:41:06.396Z,12.48
2022-08-26T13:43:38.416Z,12.57
2022-08-26T13:46:10.485Z,15.02
2022-08-26T13:48:42.567Z,13.18
2022-08-26T13:51:18.764Z,14.40
2022-08-26T13:53:51.807Z,15.32
2022-08-26T13:56:27.470Z,13.77
2022-08-26T13:59:01.311Z,14.05
2022-08-26T14:01:36.213Z,13.18
2022-08-26T14:04:08.800Z,9.98
2022-08-26T14:06:40.845Z,7.88
2022-08-26T14:09:12.950Z,5.97
2022-08-26T14:11:52.065Z,6.25
2022-08-26T14:14:26.990Z,7.63
2022-08-26T14:17:00.438Z,7.57
2022-08-26T14:19:32.759Z,6.68
2022-08-26T14:22:04.897Z,6.32
2022-08-26T14:24:36.983Z,6.45
2022-08-26T14:27:08.994Z,6.80
2022-08-26T14:29:41.506Z,6.85
2022-08-26T14:32:23.714Z,6.75
2022-08-26T14:34:56.430Z,6.00
2022-08-26T14:37:28.538Z,7.50
2022-08-26T14:40:00.660Z,6.82
2022-08-26T14:42:35.623Z,9.85
2022-08-26T14:45:11.527Z,11.00
2022-08-26T14:47:48.448Z,14.23
2022-08-26T14:50:25.285Z,12.40
2022-08-26T14:53:16.228Z,15.45
2022-08-26T14:55:51.652Z,21.58
2022-08-26T14:58:24.085Z,23.48
2022-08-26T15:00:57.609Z,23.08
2022-08-26T15:03:30.204Z,23.80
2022-08-26T15:06:02.649Z,23.85
2022-08-26T15:08:36.923Z,22.73
2022-08-26T15:11:09.091Z,22.48
2022-08-26T15:13:41.347Z,22.67
2022-08-26T15:16:14.245Z,23.42
2022-08-26T15:18:46.405Z,26.58
2022-08-26T15:21:23.018Z,20.33
2022-08-26T15:23:55.412Z,21.35
2022-08-26T15:26:29.967Z,20.63
2022-08-26T15:29:04.975Z,20.83
2022-08-26T15:31:38.074Z,19.17
2022-08-26T15:34:16.440Z,16.98
2022-08-26T15:36:49.452Z,15.90
2022-08-26T15:39:21.842Z,17.50
2022-08-26T15:41:56.240Z,17.95
2022-08-26T15:44:28.953Z,15.25
2022-08-26T15:47:01.064Z,15.90
2022-08-26T15:49:33.219Z,14.45
2022-08-26T15:52:05.545Z,15.15
2022-08-26T15:54:37.854Z,17.40
2022-08-26T15:57:12.372Z,16.73
2022-08-26T15:59:45.708Z,17.90
2022-08-26T16:02:17.895Z,18.20
2022-08-26T16:04:49.977Z,20.00
2022-08-26T16:07:22.350Z,18.92
2022-08-26T16:09:55.204Z,18.05
2022-08-26T16:12:27.687Z,18.40
2022-08-26T16:14:59.808Z,18.63
2022-08-26T16:17:31.998Z,19.05
2022-08-26T16:20:05.171Z,18.00
2022-08-26T16:22:37.203Z,17.80
2022-08-26T16:25:09.940Z,18.20
2022-08-26T16:27:42.111Z,19.17
2022-08-26T16:30:15.404Z,17.55
2022-08-26T16:32:48.648Z,16.63
2022-08-26T16:35:20.875Z,16.00
2022-08-26T16:37:53.599Z,17.02
2022-08-26T16:40:26.009Z,17.02
2022-08-26T16:42:58.783Z,16.17
2022-08-26T16:45:31.085Z,14.15
2022-08-26T16:48:05.042Z,14.18
2022-08-26T16:50:40.783Z,13.13
2022-08-26T16:56:05.484Z,10.23
2022-08-26T16:58:37.503Z,8.73
2022-08-26T17:01:09.962Z,7.13
2022-08-26T17:03:42.589Z,11.80
2022-08-26T17:06:15.392Z,8.85
2022-08-26T17:08:48.103Z,8.13
2022-08-26T17:11:20.258Z,7.32
2022-08-26T17:13:52.349Z,6.20
2022-08-26T17:16:27.145Z,6.30
2022-08-26T17:19:00.340Z,5.40
2022-08-26T17:21:35.043Z,6.10
2022-08-26T17:24:07.319Z,5.28
2022-08-26T17:26:39.338Z,4.93
2022-08-26T17:29:12.427Z,4.82
2022-08-26T17:31:44.605Z,4.68
2022-08-26T17:34:17.224Z,4.25
2022-08-26T17:36:50.107Z,4.45
2022-08-26T17:39:22.078Z,5.15
2022-08-26T17:41:54.105Z,3.67
2022-08-26T17:44:26.659Z,3.50
2022-08-26T17:46:58.623Z,4.05
2022-08-26T17:49:30.589Z,3.47
2022-08-26T17:52:03.284Z,4.28
2022-08-26T17:54:35.474Z,4.20
2022-08-26T17:57:10.716Z,3.67
2022-08-26T17:59:42.963Z,3.67
2022-08-26T18:02:16.034Z,2.90
2022-08-26T18:04:48.143Z,2.95
2022-08-26T18:07:20.353Z,3.08
2022-08-26T18:09:52.382Z,2.80
2022-08-26T18:12:24.370Z,2.92
2022-08-26T18:14:59.912Z,2.88
2022-08-26T18:17:32.016Z,3.20
2022-08-26T18:20:04.793Z,3.00
2022-08-26T18:22:36.847Z,4.07
2022-08-26T18:25:09.733Z,3.08
2022-08-26T18:27:42.174Z,2.97
2022-08-26T18:30:20.760Z,3.10
2022-08-26T18:32:53.570Z,3.00
2022-08-26T18:35:28.547Z,3.42
2022-08-26T18:38:10.347Z,2.75
2022-08-26T18:40:45.298Z,2.90
2022-08-26T18:43:17.333Z,3.40
2022-08-26T18:45:49.591Z,2.75
2022-08-26T18:48:23.207Z,6.53
2022-08-26T18:50:55.431Z,4.10
2022-08-26T18:53:29.487Z,2.42
2022-08-26T18:56:01.744Z,3.00
2022-08-26T18:58:33.778Z,2.45
2022-08-26T19:01:06.294Z,2.83
2022-08-26T19:03:38.385Z,2.47
2022-08-26T19:06:18.696Z,2.28
2022-08-26T19:11:32.624Z,2.78
2022-08-26T19:14:13.765Z,4.05
2022-08-26T19:16:48.747Z,3.47
2022-08-26T19:19:24.167Z,3.33
2022-08-26T19:21:56.200Z,3.33
2022-08-26T19:24:28.747Z,3.25
2022-08-26T19:27:02.251Z,3.03
2022-08-26T19:29:36.116Z,3.03
2022-08-26T19:32:08.707Z,2.83
2022-08-26T19:34:40.786Z,3.15
2022-08-26T19:37:12.769Z,2.95
2022-08-26T19:39:44.860Z,3.25
2022-08-26T19:42:17.092Z,3.40
2022-08-26T19:45:07.372Z,3.30
2022-08-26T19:47:53.591Z,3.53
2022-08-26T19:50:29.664Z,3.58
2022-08-26T19:53:04.186Z,2.45
2022-08-26T19:55:36.209Z,2.75
2022-08-26T19:58:08.393Z,2.80
2022-08-26T20:00:42.474Z,3.17
2022-08-26T20:03:15.823Z,2.90
2022-08-26T20:05:48.956Z,3.38
2022-08-26T20:08:22.641Z,3.10
2022-08-26T20:10:55.804Z,3.47
2022-08-26T20:13:28.372Z,3.42
2022-08-26T20:16:00.350Z,3.40
2022-08-26T20:18:50.936Z,3.22
2022-08-26T20:21:29.632Z,3.33
2022-08-26T20:24:09.477Z,2.95
2022-08-26T20:26:44.226Z,3.45
2022-08-26T20:29:18.448Z,3.22
2022-08-26T20:31:52.699Z,3.70
2022-08-26T20:34:26.384Z,2.92
2022-08-26T20:36:59.538Z,3.80
2022-08-26T20:39:31.934Z,2.90
2022-08-26T20:42:04.641Z,3.50
2022-08-26T20:44:37.811Z,3.88
2022-08-26T20:47:15.320Z,2.95
2022-08-26T20:49:47.382Z,3.50
2022-08-26T20:52:24.910Z,3.50
2022-08-26T20:54:57.142Z,3.40
2022-08-26T20:57:29.193Z,3.47
2022-08-26T21:00:01.336Z,4.30
2022-08-26T21:02:34.173Z,3.70
2022-08-26T21:05:07.739Z,3.45
2022-08-26T21:07:39.822Z,3.67
2022-08-26T21:10:12.881Z,3.70
2022-08-26T21:12:45.132Z,3.90
2022-08-26T21:15:17.251Z,5.70
2022-08-26T21:17:49.352Z,3.63
2022-08-26T21:20:21.649Z,3.28
2022-08-26T21:22:53.697Z,3.33
2022-08-26T21:25:26.187Z,3.30
2022-08-26T21:27:58.254Z,3.55
2022-08-26T21:30:30.312Z,3.47
2022-08-26T21:33:02.346Z,3.90
2022-08-26T21:35:34.832Z,3.10
2022-08-26T21:38:06.921Z,3.40
2022-08-26T21:40:38.981Z,3.20
2022-08-26T21:43:16.198Z,3.67
2022-08-26T21:46:14.568Z,3.63
2022-08-26T21:48:54.752Z,3.67
2022-08-26T21:51:30.814Z,3.63
2022-08-26T21:54:10.526Z,3.58
2022-08-26T21:56:46.780Z,3.55
2022-08-26T21:59:19.635Z,4.22
2022-08-26T22:01:51.734Z,3.88
2022-08-26T22:04:24.383Z,3.63
2022-08-26T22:06:59.587Z,3.58
2022-08-26T22:09:32.437Z,3.88
2022-08-26T22:12:05.238Z,3.55
2022-08-26T22:14:39.341Z,2.53
2022-08-26T22:17:12.035Z,3.03
2022-08-26T22:19:45.717Z,3.53
2022-08-26T22:22:18.563Z,3.22
2022-08-26T22:24:50.739Z,4.03
2022-08-26T22:27:23.329Z,3.30
2022-08-26T22:29:55.422Z,4.10
2022-08-26T22:32:27.508Z,3.72
2022-08-26T22:34:59.539Z,3.67
2022-08-26T22:37:31.586Z,3.40
2022-08-26T22:40:06.156Z,3.40
2022-08-26T22:42:39.500Z,5.35
2022-08-26T22:45:12.322Z,3.22
2022-08-26T22:47:44.356Z,2.60
2022-08-26T22:50:16.392Z,3.10
2022-08-26T22:52:48.376Z,2.50
2022-08-26T22:55:20.426Z,2.40
2022-08-26T22:57:52.869Z,2.13
2022-08-26T23:00:31.793Z,3.20
2022-08-26T23:03:04.992Z,3.30
2022-08-26T23:05:39.498Z,2.72
2022-08-26T23:08:12.782Z,2.65
2022-08-26T23:10:47.622Z,2.28
2022-08-26T23:13:20.199Z,2.65
2022-08-26T23:16:02.344Z,2.83
2022-08-26T23:18:34.435Z,2.55
2022-08-26T23:21:08.150Z,2.38
2022-08-26T23:23:40.161Z,2.67
2022-08-26T23:26:16.675Z,2.60
2022-08-26T23:28:49.602Z,2.60
2022-08-26T23:31:21.805Z,2.30
2022-08-26T23:34:12.203Z,2.05
2022-08-26T23:36:44.375Z,2.38
2022-08-26T23:39:18.669Z,2.08
2022-08-26T23:41:50.683Z,1.67
2022-08-26T23:44:22.696Z,2.03
2022-08-26T23:46:55.574Z,2.03
2022-08-26T23:49:28.258Z,2.00
2022-08-26T23:52:19.194Z,1.98
2022-08-26T23:54:52.934Z,2.17
2022-08-26T23:57:26.356Z,1.75
2022-08-26T23:59:58.365Z,2.58
